Terminal Aerodrome Forecast
Issued by NWS

Home | Current Version | Previous Version | Text Only | Print | Product List | Glossary On
Versions: 1 2 3 4 5 6 7 8 9 10 11 12 13 14 15
000
FTUS43 KOAX 212342
TAFSNY
TAF
KSNY 212342Z 2200/2224 31014KT P6SM SCT060 OVC080
     FM220500 31020KT P6SM BKN100
     FM221500 31032G48KT P6SM BKN100=

USA.gov is the U.S. government's official web portal to all federal, state and local government web resources and services.